createdAt,value
2023-05-13T00:12:26.973Z,12.75
2023-05-13T00:14:53.578Z,12.75
2023-05-13T00:17:20.214Z,12.40
2023-05-13T00:19:46.817Z,12.85
2023-05-13T00:22:13.539Z,13.02
2023-05-13T00:24:40.073Z,13.27
2023-05-13T00:27:06.721Z,13.57
2023-05-13T00:29:33.329Z,13.38
2023-05-13T00:32:00.005Z,14.15
2023-05-13T00:34:26.709Z,13.93
2023-05-13T00:36:54.844Z,14.57
2023-05-13T00:39:21.485Z,13.40
2023-05-13T00:41:48.070Z,14.88
2023-05-13T00:44:14.892Z,13.90
2023-05-13T00:46:41.853Z,14.93
2023-05-13T00:49:09.062Z,15.47
2023-05-13T00:51:36.661Z,15.48
2023-05-13T00:54:05.930Z,14.73
2023-05-13T00:56:32.724Z,15.43
2023-05-13T00:59:00.798Z,16.65
2023-05-13T01:02:01.214Z,16.45
2023-05-13T01:04:35.948Z,15.40
2023-05-13T01:07:20.721Z,16.08
2023-05-13T01:10:27.786Z,15.02
2023-05-13T01:13:01.514Z,13.93
2023-05-13T01:15:29.369Z,13.85
2023-05-13T01:20:43.807Z,13.47
2023-05-13T01:23:13.352Z,13.85
2023-05-13T01:25:40.515Z,13.60
2023-05-13T01:28:09.033Z,14.33
2023-05-13T01:30:36.698Z,15.48
2023-05-13T01:33:03.926Z,15.45
2023-05-13T01:35:32.217Z,14.88
2023-05-13T01:38:00.217Z,15.20
2023-05-13T01:40:32.867Z,14.70
2023-05-13T01:43:00.810Z,13.35
2023-05-13T01:45:30.930Z,15.15
2023-05-13T01:47:57.577Z,14.55
2023-05-13T01:50:24.536Z,14.93
2023-05-13T01:52:51.552Z,14.47
2023-05-13T01:55:19.562Z,15.80
2023-05-13T01:57:46.638Z,15.27
2023-05-13T02:00:13.891Z,15.40
2023-05-13T02:02:40.545Z,15.23
2023-05-13T02:05:07.535Z,14.57
2023-05-13T02:07:34.431Z,14.98
2023-05-13T02:10:01.225Z,15.13
2023-05-13T02:12:27.862Z,15.35
2023-05-13T02:14:55.365Z,15.25
2023-05-13T02:17:23.885Z,15.10
2023-05-13T02:19:50.573Z,14.68
2023-05-13T02:22:17.300Z,13.02
2023-05-13T02:24:44.131Z,14.63
2023-05-13T02:27:12.984Z,13.20
2023-05-13T02:29:39.814Z,13.75
2023-05-13T02:32:08.099Z,12.95
2023-05-13T02:34:34.870Z,13.35
2023-05-13T02:37:01.429Z,13.30
2023-05-13T02:39:28.060Z,13.82
2023-05-13T02:41:54.615Z,13.85
2023-05-13T02:44:21.177Z,13.32
2023-05-13T02:46:47.742Z,14.02
2023-05-13T02:49:14.361Z,13.48
2023-05-13T02:51:41.022Z,13.32
2023-05-13T02:54:07.750Z,13.05
2023-05-13T02:56:34.364Z,13.57
2023-05-13T02:59:01.072Z,13.40
2023-05-13T03:01:27.755Z,13.57
2023-05-13T03:03:54.457Z,13.73
2023-05-13T03:06:21.311Z,13.40
2023-05-13T03:08:47.905Z,14.25
2023-05-13T03:11:14.512Z,13.20
2023-05-13T03:13:41.118Z,13.70
2023-05-13T03:16:07.894Z,13.68
2023-05-13T03:18:36.073Z,13.82
2023-05-13T03:21:03.140Z,12.50
2023-05-13T03:23:29.728Z,12.90
2023-05-13T03:25:56.338Z,12.55
2023-05-13T03:28:23.201Z,13.55
2023-05-13T03:30:49.841Z,13.32
2023-05-13T03:33:16.519Z,13.65
2023-05-13T03:35:43.134Z,12.35
2023-05-13T03:38:09.725Z,13.35
2023-05-13T03:40:36.273Z,13.80
2023-05-13T03:43:02.864Z,12.93
2023-05-13T03:45:29.402Z,12.65
2023-05-13T03:48:09.780Z,12.43
2023-05-13T03:50:36.433Z,11.88
2023-05-13T03:53:03.827Z,12.05
2023-05-13T03:55:30.546Z,12.32
2023-05-13T03:57:57.117Z,13.25
2023-05-13T04:00:24.018Z,12.52
2023-05-13T04:02:50.875Z,13.17
2023-05-13T04:05:17.849Z,13.00
2023-05-13T04:07:44.514Z,12.73
2023-05-13T04:10:14.584Z,13.13
2023-05-13T04:12:42.146Z,13.25
2023-05-13T04:15:08.929Z,13.25
2023-05-13T04:17:35.543Z,13.05
2023-05-13T04:20:02.212Z,13.30
2023-05-13T04:22:28.846Z,13.63
2023-05-13T04:24:57.265Z,13.95
2023-05-13T04:27:27.356Z,12.43
2023-05-13T04:29:54.013Z,13.50
2023-05-13T04:32:23.592Z,12.68
2023-05-13T04:34:51.265Z,12.90
2023-05-13T04:37:18.006Z,12.60
2023-05-13T04:39:48.158Z,12.57
2023-05-13T04:42:15.450Z,12.82
2023-05-13T04:44:42.238Z,12.77
2023-05-13T04:47:08.924Z,12.40
2023-05-13T04:49:35.996Z,11.93
2023-05-13T04:52:05.237Z,13.45
2023-05-13T04:54:35.523Z,13.55
2023-05-13T04:57:03.636Z,12.50
2023-05-13T04:59:30.385Z,12.93
2023-05-13T05:01:57.114Z,13.32
2023-05-13T05:04:25.321Z,12.90
2023-05-13T05:06:52.420Z,13.13
2023-05-13T05:09:21.796Z,12.93
2023-05-13T05:11:50.536Z,12.95
2023-05-13T05:14:17.460Z,14.75
2023-05-13T05:16:44.040Z,15.45
2023-05-13T05:19:13.761Z,13.52
2023-05-13T05:21:40.385Z,13.02
2023-05-13T05:24:07.207Z,13.23
2023-05-13T05:26:34.017Z,14.75
2023-05-13T05:29:00.636Z,14.65
2023-05-13T05:31:27.764Z,14.20
2023-05-13T05:33:56.604Z,13.98
2023-05-13T05:36:23.605Z,14.10
2023-05-13T05:38:50.200Z,13.93
2023-05-13T05:41:17.128Z,14.65
2023-05-13T05:43:43.776Z,14.33
2023-05-13T05:46:10.632Z,15.48
2023-05-13T05:48:37.247Z,15.45
2023-05-13T05:51:03.979Z,15.00
2023-05-13T05:53:30.711Z,13.85
2023-05-13T05:55:57.390Z,14.45
2023-05-13T05:58:24.106Z,14.18
2023-05-13T06:00:50.839Z,15.30
2023-05-13T06:03:18.815Z,15.38
2023-05-13T06:05:45.558Z,13.93
2023-05-13T06:08:12.160Z,24.90
2023-05-13T06:10:38.852Z,14.88
2023-05-13T06:13:05.578Z,13.63
2023-05-13T06:15:32.485Z,13.20
2023-05-13T06:18:00.635Z,11.30
2023-05-13T06:20:27.290Z,10.27
2023-05-13T06:22:59.645Z,11.30
2023-05-13T06:25:26.566Z,17.55
2023-05-13T06:27:55.439Z,12.43
2023-05-13T06:33:40.294Z,9.45
2023-05-13T06:36:07.596Z,9.15
2023-05-13T06:38:37.068Z,8.65
2023-05-13T06:41:03.790Z,8.23
2023-05-13T06:43:30.482Z,7.38
2023-05-13T06:45:57.326Z,7.80
2023-05-13T06:48:23.950Z,7.77
2023-05-13T06:50:50.592Z,7.20
2023-05-13T06:53:17.742Z,20.08
2023-05-13T06:55:44.553Z,6.95
2023-05-13T06:58:11.296Z,6.23
2023-05-13T07:00:39.441Z,6.63
2023-05-13T07:03:07.255Z,6.28
2023-05-13T07:05:37.528Z,5.50
2023-05-13T07:08:07.094Z,5.75
2023-05-13T07:10:35.720Z,6.82
2023-05-13T07:13:03.103Z,11.77
2023-05-13T07:15:29.850Z,8.45
2023-05-13T07:17:56.530Z,7.70
2023-05-13T07:20:23.729Z,7.57
2023-05-13T07:22:51.271Z,20.35
2023-05-13T07:25:19.748Z,12.00
2023-05-13T07:27:46.554Z,6.28
2023-05-13T07:30:14.024Z,5.80
2023-05-13T07:32:41.154Z,6.35
2023-05-13T07:35:08.479Z,5.72
2023-05-13T07:37:35.048Z,5.85
2023-05-13T07:40:01.680Z,5.50
2023-05-13T07:42:30.083Z,5.53
2023-05-13T07:44:56.740Z,5.72
2023-05-13T07:47:23.626Z,5.05
2023-05-13T07:49:50.670Z,5.38
2023-05-13T07:52:17.410Z,5.80
2023-05-13T07:54:44.073Z,6.07
2023-05-13T07:57:10.628Z,4.95
2023-05-13T07:59:37.229Z,5.38
2023-05-13T08:02:04.937Z,5.15
2023-05-13T08:04:31.596Z,4.70
2023-05-13T08:06:58.286Z,5.70
2023-05-13T08:09:24.958Z,6.13
2023-05-13T08:11:51.588Z,6.63
2023-05-13T08:14:18.170Z,5.85
2023-05-13T08:16:44.903Z,4.90
2023-05-13T08:19:11.772Z,5.80
2023-05-13T08:21:38.728Z,4.93
2023-05-13T08:24:06.190Z,5.20
2023-05-13T08:26:33.968Z,4.78
2023-05-13T08:29:00.725Z,6.38
2023-05-13T08:31:27.410Z,6.00
2023-05-13T08:33:54.460Z,5.93
2023-05-13T08:36:23.005Z,5.18
2023-05-13T08:38:49.542Z,4.75
2023-05-13T08:41:16.853Z,7.15
2023-05-13T08:43:44.199Z,7.68
2023-05-13T08:46:12.126Z,8.63
2023-05-13T08:48:40.978Z,6.68
2023-05-13T08:51:08.804Z,8.65
2023-05-13T08:53:36.139Z,8.80
2023-05-13T08:56:03.409Z,9.95
2023-05-13T08:58:30.107Z,8.45
2023-05-13T09:00:57.401Z,7.37
2023-05-13T09:03:25.778Z,7.15
2023-05-13T09:05:52.888Z,7.20
2023-05-13T09:08:19.569Z,8.65
2023-05-13T09:10:47.014Z,7.93
2023-05-13T09:13:14.469Z,8.55
2023-05-13T09:18:08.449Z,7.28
2023-05-13T09:20:38.480Z,7.53
2023-05-13T09:23:10.697Z,7.55
2023-05-13T09:25:37.873Z,7.43
2023-05-13T09:28:06.551Z,6.43
2023-05-13T09:30:33.154Z,6.10
2023-05-13T09:33:05.122Z,7.30
2023-05-13T09:35:36.684Z,6.97
2023-05-13T09:38:13.725Z,7.32
2023-05-13T09:40:41.478Z,6.45
2023-05-13T09:43:08.719Z,7.07
2023-05-13T09:45:36.349Z,6.53
2023-05-13T09:48:08.329Z,6.55
2023-05-13T09:50:35.020Z,4.95
2023-05-13T09:53:12.278Z,6.67
2023-05-13T09:55:39.133Z,6.68
2023-05-13T09:58:11.412Z,6.32
2023-05-13T10:00:40.689Z,6.03
2023-05-13T10:03:08.524Z,5.50
2023-05-13T10:08:03.088Z,6.00
2023-05-13T10:10:34.254Z,5.55
2023-05-13T10:13:06.904Z,5.55
2023-05-13T10:15:34.827Z,4.82
2023-05-13T10:18:01.943Z,5.30
2023-05-13T10:20:28.836Z,4.90
2023-05-13T10:22:56.751Z,4.82
2023-05-13T10:25:24.389Z,5.32
2023-05-13T10:27:54.063Z,5.55
2023-05-13T10:30:26.478Z,5.22
2023-05-13T10:32:54.684Z,5.95
2023-05-13T10:35:23.524Z,4.70
2023-05-13T10:38:14.967Z,5.28
2023-05-13T10:41:19.351Z,5.75
2023-05-13T10:43:46.333Z,5.57
2023-05-13T10:46:13.807Z,4.82
2023-05-13T10:51:10.019Z,6.00
2023-05-13T10:53:44.583Z,4.82
2023-05-13T10:56:12.196Z,3.85
2023-05-13T10:58:39.513Z,3.88
2023-05-13T11:01:31.193Z,3.83
2023-05-13T11:04:03.300Z,4.13
2023-05-13T11:06:38.030Z,3.78
2023-05-13T11:09:18.940Z,4.10
2023-05-13T11:11:56.896Z,3.70
2023-05-13T11:14:46.774Z,3.60
2023-05-13T11:17:14.319Z,3.65
2023-05-13T11:19:50.052Z,3.08
2023-05-13T11:22:21.357Z,3.47
2023-05-13T11:25:10.940Z,3.28
2023-05-13T11:27:42.428Z,2.63
2023-05-13T11:30:22.964Z,3.00
2023-05-13T11:32:58.527Z,2.97
2023-05-13T11:35:38.242Z,3.45
2023-05-13T11:38:05.877Z,3.33
2023-05-13T11:40:39.747Z,3.17
2023-05-13T11:43:06.780Z,3.08
2023-05-13T11:45:40.313Z,4.35
2023-05-13T11:48:24.307Z,3.10
2023-05-13T11:50:52.129Z,2.97
2023-05-13T11:53:22.725Z,2.78
2023-05-13T11:55:49.984Z,2.92
2023-05-13T11:58:16.767Z,3.00
2023-05-13T12:00:46.515Z,3.10
2023-05-13T12:03:16.167Z,2.92
2023-05-13T12:05:45.962Z,8.73
2023-05-13T12:08:12.728Z,3.67
2023-05-13T12:10:43.986Z,3.20
2023-05-13T12:13:11.039Z,2.42
2023-05-13T12:15:37.980Z,2.85
2023-05-13T12:18:04.799Z,4.57
2023-05-13T12:20:33.442Z,2.47
2023-05-13T12:23:01.837Z,2.65
2023-05-13T12:25:39.163Z,2.70
2023-05-13T12:30:43.544Z,3.20
2023-05-13T12:33:14.899Z,3.63
2023-05-13T12:35:41.817Z,2.40
2023-05-13T12:38:08.582Z,5.28
2023-05-13T12:40:35.252Z,15.37
2023-05-13T12:43:03.251Z,2.63
2023-05-13T12:45:31.573Z,3.90
2023-05-13T12:47:59.844Z,2.97
2023-05-13T12:50:27.224Z,2.20
2023-05-13T12:52:55.539Z,2.45
2023-05-13T12:55:22.886Z,2.13
2023-05-13T13:00:24.486Z,2.45
2023-05-13T13:02:52.133Z,2.88
2023-05-13T13:05:18.832Z,3.50
2023-05-13T13:07:45.650Z,2.97
2023-05-13T13:10:12.444Z,3.10
2023-05-13T13:12:39.707Z,2.37
2023-05-13T13:15:10.790Z,2.67
2023-05-13T13:17:38.050Z,1.90
2023-05-13T13:20:07.519Z,3.05
2023-05-13T13:22:37.235Z,1.63
2023-05-13T13:25:07.515Z,1.75
2023-05-13T13:27:35.174Z,1.80
2023-05-13T13:30:02.182Z,2.88
2023-05-13T13:32:28.897Z,1.75
2023-05-13T13:34:56.073Z,1.90
2023-05-13T13:37:22.683Z,2.30
2023-05-13T13:39:49.412Z,2.77
2023-05-13T13:42:15.991Z,2.20
2023-05-13T13:44:42.822Z,2.10
2023-05-13T13:47:10.037Z,3.88
2023-05-13T13:49:36.852Z,2.75
2023-05-13T13:52:03.686Z,2.22
2023-05-13T13:54:33.246Z,2.97
2023-05-13T13:57:00.116Z,2.17
2023-05-13T13:59:26.705Z,2.50
2023-05-13T14:01:55.535Z,2.90
2023-05-13T14:04:27.740Z,2.55
2023-05-13T14:07:00.367Z,2.58
2023-05-13T14:09:26.977Z,2.38
2023-05-13T14:11:53.921Z,2.80
2023-05-13T14:14:21.720Z,2.97
2023-05-13T14:16:48.669Z,2.90
2023-05-13T14:21:42.034Z,2.70
2023-05-13T14:24:08.769Z,2.45
2023-05-13T14:26:35.511Z,2.40
2023-05-13T14:29:02.168Z,2.30
2023-05-13T14:31:28.936Z,2.00
2023-05-13T14:33:55.588Z,2.30
2023-05-13T14:36:23.064Z,2.50
2023-05-13T14:41:20.125Z,2.60
2023-05-13T14:43:47.375Z,2.45
2023-05-13T14:46:18.483Z,2.03
2023-05-13T14:48:45.236Z,1.83
2023-05-13T14:51:12.600Z,3.33
2023-05-13T14:53:39.877Z,2.70
2023-05-13T14:56:07.353Z,2.53
2023-05-13T15:01:00.773Z,6.10
2023-05-13T15:03:27.632Z,4.27
2023-05-13T15:05:54.643Z,3.63
2023-05-13T15:08:21.348Z,2.13
2023-05-13T15:10:48.178Z,2.50
2023-05-13T15:13:14.962Z,2.40
2023-05-13T15:15:41.571Z,2.47
2023-05-13T15:18:08.304Z,2.00
2023-05-13T15:20:35.002Z,2.30
2023-05-13T15:23:01.617Z,3.27
2023-05-13T15:25:28.289Z,5.10
2023-05-13T15:27:55.313Z,1.93
2023-05-13T15:30:22.111Z,2.10
2023-05-13T15:32:48.808Z,2.10
2023-05-13T15:35:17.477Z,2.00
2023-05-13T15:37:44.175Z,2.30
2023-05-13T15:40:13.700Z,2.07
2023-05-13T15:42:43.687Z,2.50
2023-05-13T15:45:10.447Z,3.22
2023-05-13T15:47:37.628Z,2.50
2023-05-13T15:50:05.112Z,2.95
2023-05-13T15:52:31.808Z,3.17
2023-05-13T15:54:59.185Z,2.70
2023-05-13T15:57:25.934Z,3.25
2023-05-13T15:59:52.663Z,2.73
2023-05-13T16:02:19.290Z,2.97
2023-05-13T16:04:47.429Z,3.37
2023-05-13T16:07:35.281Z,2.90
2023-05-13T16:10:01.982Z,3.05
2023-05-13T16:12:30.064Z,4.07
2023-05-13T16:14:57.500Z,3.25
2023-05-13T16:17:24.262Z,3.90
2023-05-13T16:19:51.064Z,3.27
2023-05-13T16:22:32.866Z,3.20
2023-05-13T16:25:01.922Z,3.65
2023-05-13T16:27:29.496Z,3.08
2023-05-13T16:32:23.453Z,3.05
2023-05-13T16:34:50.103Z,2.83
2023-05-13T16:37:17.068Z,3.33
2023-05-13T16:39:44.886Z,3.50
2023-05-13T16:42:11.689Z,3.10
2023-05-13T16:44:38.547Z,5.17
2023-05-13T16:47:11.093Z,5.10
2023-05-13T16:49:37.789Z,4.35
2023-05-13T16:52:05.723Z,3.63
2023-05-13T16:54:33.258Z,3.40
2023-05-13T16:59:28.040Z,3.67
2023-05-13T17:01:54.927Z,3.60
2023-05-13T17:04:21.609Z,3.70
2023-05-13T17:06:48.243Z,3.72
2023-05-13T17:09:14.881Z,3.22
2023-05-13T17:11:41.503Z,3.63
2023-05-13T17:14:08.264Z,3.90
2023-05-13T17:16:34.922Z,3.30
2023-05-13T17:19:01.703Z,3.37
2023-05-13T17:21:28.501Z,59.13
2023-05-13T17:23:55.255Z,4.73
2023-05-13T17:26:22.228Z,3.42
2023-05-13T17:28:49.777Z,3.13
2023-05-13T17:33:46.034Z,3.28
2023-05-13T17:36:25.861Z,3.63
2023-05-13T17:39:08.276Z,4.10
2023-05-13T17:41:50.544Z,4.53
2023-05-13T17:44:24.201Z,5.78
2023-05-13T17:46:51.074Z,3.58
2023-05-13T17:49:18.109Z,3.57
2023-05-13T17:51:44.990Z,3.35
2023-05-13T18:12:03.480Z,3.35
2023-05-13T18:14:32.436Z,3.58
2023-05-13T18:17:00.118Z,3.88
2023-05-13T18:19:26.772Z,4.05
2023-05-13T18:21:53.584Z,4.40
2023-05-13T18:24:20.379Z,5.03
2023-05-13T18:26:47.081Z,4.10
2023-05-13T18:29:13.789Z,5.00
2023-05-13T18:31:40.609Z,5.13
2023-05-13T18:34:07.245Z,5.00
2023-05-13T18:36:33.926Z,5.50
2023-05-13T18:39:01.399Z,6.10
2023-05-13T18:41:27.958Z,4.88
2023-05-13T18:43:54.623Z,6.20
2023-05-13T18:46:21.639Z,5.83
2023-05-13T18:48:48.360Z,5.65
2023-05-13T18:51:16.543Z,5.25
2023-05-13T18:53:43.479Z,5.28
2023-05-13T18:56:11.535Z,5.20
2023-05-13T18:58:38.305Z,5.38
2023-05-13T19:01:05.221Z,5.23
2023-05-13T19:03:32.902Z,5.90
2023-05-13T19:08:30.714Z,5.50
2023-05-13T19:10:57.757Z,5.65
2023-05-13T19:13:30.699Z,5.95
2023-05-13T19:16:03.019Z,5.90
2023-05-13T19:18:29.771Z,6.30
2023-05-13T19:20:56.489Z,5.80
2023-05-13T19:23:24.481Z,7.18
2023-05-13T19:25:51.544Z,8.45
2023-05-13T19:28:19.760Z,9.00
2023-05-13T19:33:15.421Z,6.87
2023-05-13T19:35:43.414Z,5.88
2023-05-13T19:38:10.368Z,7.00
2023-05-13T19:40:37.026Z,6.80
2023-05-13T19:43:06.504Z,6.97
2023-05-13T19:45:33.343Z,6.13
2023-05-13T19:48:00.131Z,6.77
2023-05-13T19:50:27.111Z,7.50
2023-05-13T19:52:56.382Z,7.53
2023-05-13T19:55:23.183Z,7.95
2023-05-13T19:57:53.984Z,7.73
2023-05-13T20:00:21.121Z,8.02
2023-05-13T20:02:48.140Z,8.43
2023-05-13T20:05:14.922Z,8.93
2023-05-13T20:07:41.707Z,9.20
2023-05-13T20:10:09.131Z,9.60
2023-05-13T20:12:36.161Z,10.30
2023-05-13T20:15:03.714Z,10.10
2023-05-13T20:17:30.633Z,10.30
2023-05-13T20:19:57.606Z,10.70
2023-05-13T20:22:24.243Z,9.57
2023-05-13T20:24:51.624Z,9.82
2023-05-13T20:27:18.706Z,10.65
2023-05-13T20:29:47.493Z,11.15
2023-05-13T20:32:24.539Z,10.82
2023-05-13T20:34:52.773Z,10.95
2023-05-13T20:37:23.404Z,10.73
2023-05-13T20:39:54.066Z,11.13
2023-05-13T20:45:04.561Z,12.10
2023-05-13T20:47:31.484Z,11.77
2023-05-13T20:49:58.248Z,11.27
2023-05-13T20:52:28.755Z,12.07
2023-05-13T20:54:55.745Z,11.45
2023-05-13T20:57:22.658Z,12.13
2023-05-13T20:59:50.684Z,12.50
2023-05-13T21:02:18.253Z,12.95
2023-05-13T21:04:45.163Z,12.60
2023-05-13T21:07:12.223Z,12.27
2023-05-13T21:09:39.481Z,13.00
2023-05-13T21:12:10.182Z,12.48
2023-05-13T21:14:36.961Z,13.10
2023-05-13T21:17:04.295Z,13.32
2023-05-13T21:19:30.966Z,13.25
2023-05-13T21:21:58.755Z,14.93
2023-05-13T21:24:25.440Z,13.85
2023-05-13T21:26:52.413Z,13.75
2023-05-13T21:29:19.345Z,14.40
2023-05-13T21:31:46.801Z,14.37
2023-05-13T21:34:13.647Z,14.85
2023-05-13T21:36:41.348Z,14.88
2023-05-13T21:39:09.706Z,14.20
2023-05-13T21:41:36.473Z,13.75
2023-05-13T21:44:03.301Z,13.73
2023-05-13T21:46:30.029Z,15.57
2023-05-13T21:48:56.855Z,15.35
2023-05-13T21:51:23.976Z,15.02
2023-05-13T21:53:50.992Z,16.40
2023-05-13T21:56:21.911Z,15.10
2023-05-13T21:58:49.462Z,14.93
2023-05-13T22:01:16.257Z,14.60
2023-05-13T22:03:42.903Z,16.83
2023-05-13T22:06:09.582Z,16.50
2023-05-13T22:08:36.992Z,15.50
2023-05-13T22:11:03.728Z,17.08
2023-05-13T22:13:30.453Z,15.90
2023-05-13T22:15:58.280Z,16.17
2023-05-13T22:20:52.162Z,16.77
2023-05-13T22:23:19.010Z,16.70
2023-05-13T22:25:45.706Z,16.63
2023-05-13T22:28:12.446Z,16.20
2023-05-13T22:30:39.094Z,15.45
2023-05-13T22:33:05.830Z,16.52
2023-05-13T22:35:36.488Z,14.65
2023-05-13T22:38:06.538Z,14.40
2023-05-13T22:40:33.220Z,17.00
2023-05-13T22:42:59.862Z,15.45
2023-05-13T22:45:26.524Z,15.05
2023-05-13T22:47:53.315Z,16.05
2023-05-13T22:50:20.170Z,15.07
2023-05-13T22:52:46.816Z,15.57
2023-05-13T22:55:13.646Z,14.60
2023-05-13T22:57:40.496Z,15.15
2023-05-13T23:00:07.879Z,16.40
2023-05-13T23:02:34.529Z,14.98
2023-05-13T23:05:01.212Z,15.02
2023-05-13T23:07:27.841Z,15.02
2023-05-13T23:09:54.486Z,13.77
2023-05-13T23:12:21.326Z,13.95
2023-05-13T23:14:47.928Z,13.57
2023-05-13T23:17:14.605Z,12.98
2023-05-13T23:19:41.311Z,13.10
2023-05-13T23:22:07.896Z,13.27
2023-05-13T23:24:34.584Z,13.48
2023-05-13T23:27:01.189Z,13.05
2023-05-13T23:29:27.871Z,12.82
2023-05-13T23:31:55.683Z,12.50
2023-05-13T23:36:49.023Z,11.38
2023-05-13T23:39:15.749Z,11.43
2023-05-13T23:41:43.066Z,11.10
2023-05-13T23:44:09.763Z,10.85
2023-05-13T23:46:36.422Z,10.82
2023-05-13T23:49:03.075Z,11.27
2023-05-13T23:51:31.132Z,10.55
2023-05-13T23:53:57.772Z,11.15
2023-05-13T23:56:24.421Z,11.32
